Time;durP1;ratioP1;P1;durP2;ratioP2;P2;SDS_P1;SDS_P2;PMS_P1;PMS_P2;Temp;Humidity;BMP_temperature;BMP_pressure;BME280_temperature;BME280_humidity;BME280_pressure;Samples;Min_cycle;Max_cycle;Signal;HPM_P1;HPM_P2
2022/12/02 00:00:54;;;;;;;;;36.50;33.75;;;;;-149.00;100.00;66333.84;5041872;28;46449;-79
2022/12/02 00:03:23;;;;;;;;;32.33;31.67;;;;;-149.00;100.00;66333.84;5042551;28;45298;-80
2022/12/02 00:05:51;;;;;;;;;39.00;34.25;;;;;-149.00;100.00;66333.84;5032167;28;45271;-80
2022/12/02 00:08:27;;;;;;;;;36.33;34.00;;;;;-149.00;100.00;66333.84;5048512;28;45523;-80
2022/12/02 00:10:55;;;;;;;;;40.25;33.25;;;;;-149.00;100.00;66333.84;5029512;28;47506;-80
2022/12/02 00:13:25;;;;;;;;;47.00;33.25;;;;;-149.00;100.00;66333.84;5033884;28;45501;-80
2022/12/02 00:16:02;;;;;;;;;35.75;32.25;;;;;-149.00;100.00;66333.84;5044229;28;45342;-79
2022/12/02 00:18:27;;;;;;;;;33.00;28.67;;;;;-149.00;100.00;66333.84;5030992;28;47103;-80
2022/12/02 00:20:53;;;;;;;;;44.25;34.75;;;;;-149.00;100.00;66333.84;5042936;28;45379;-80
2022/12/02 00:23:19;;;;;;;;;40.33;35.67;;;;;-149.00;100.00;66333.84;5048539;28;45396;-79
2022/12/02 00:25:48;;;;;;;;;32.00;29.50;;;;;-149.00;100.00;66333.84;5049610;28;45385;-80
2022/12/02 00:28:14;;;;;;;;;41.00;34.33;;;;;-149.00;100.00;66333.84;5029287;28;46408;-80
2022/12/02 00:30:40;;;;;;;;;47.00;36.00;;;;;-149.00;100.00;66333.84;5025132;28;47121;-79
2022/12/02 00:33:06;;;;;;;;;38.67;34.33;;;;;-149.00;100.00;66333.84;5027737;28;45318;-80
2022/12/02 00:35:31;;;;;;;;;39.50;35.50;;;;;-149.00;100.00;66333.84;5043454;28;45364;-80
2022/12/02 00:37:56;;;;;;;;;39.00;33.67;;;;;-149.00;100.00;66333.84;5041823;28;45271;-80
2022/12/02 00:40:22;;;;;;;;;39.33;34.67;;;;;-149.00;100.00;66333.84;5042644;28;45403;-82
2022/12/02 00:42:48;;;;;;;;;39.25;35.00;;;;;-149.00;100.00;66333.84;5024531;28;45393;-80
2022/12/02 00:47:58;;;;;;;;;49.00;38.75;;;;;-149.00;100.00;66333.84;5041073;28;45351;-81
2022/12/02 00:50:24;;;;;;;;;38.75;35.00;;;;;-149.00;100.00;66333.84;5045797;28;46617;-81
2022/12/02 00:52:49;;;;;;;;;41.00;34.00;;;;;-149.00;100.00;66333.84;5041289;28;45399;-79
2022/12/02 00:55:15;;;;;;;;;42.00;35.75;;;;;-149.00;100.00;66333.84;5048222;28;45332;-81
2022/12/02 00:57:40;;;;;;;;;40.50;36.25;;;;;-149.00;100.00;66333.84;5042402;28;47476;-82
2022/12/02 01:00:06;;;;;;;;;45.00;36.00;;;;;-149.00;100.00;66333.84;5049063;28;45600;-79
2022/12/02 01:02:32;;;;;;;;;43.75;36.75;;;;;-149.00;100.00;66333.84;5045494;28;45326;-82
2022/12/02 01:04:57;;;;;;;;;48.50;40.00;;;;;-149.00;100.00;66333.84;5044477;28;45217;-81
2022/12/02 01:07:23;;;;;;;;;42.00;36.25;;;;;-149.00;100.00;66333.84;5046188;28;45210;-80
2022/12/02 01:09:48;;;;;;;;;48.50;39.50;;;;;-149.00;100.00;66333.84;5042836;28;47193;-80
2022/12/02 01:12:14;;;;;;;;;44.50;37.00;;;;;-149.00;100.00;66333.84;5025388;28;45885;-80
2022/12/02 01:14:39;;;;;;;;;52.25;42.00;;;;;-149.00;100.00;66333.84;5045535;28;45221;-79
2022/12/02 01:17:05;;;;;;;;;41.75;36.75;;;;;-149.00;100.00;66333.84;5046105;28;45467;-81
2022/12/02 01:19:30;;;;;;;;;48.75;39.50;;;;;-149.00;100.00;66333.84;5025576;28;48249;-79
2022/12/02 01:21:55;;;;;;;;;53.00;41.25;;;;;-149.00;100.00;66333.84;5046900;28;45264;-81
2022/12/02 01:24:21;;;;;;;;;46.00;38.75;;;;;-149.00;100.00;66333.84;5032178;28;45289;-81
2022/12/02 01:26:46;;;;;;;;;52.50;41.75;;;;;-149.00;100.00;66333.84;5048900;28;45595;-81
2022/12/02 01:29:11;;;;;;;;;44.75;39.00;;;;;-149.00;100.00;66333.84;5053971;28;45401;-81
2022/12/02 01:31:37;;;;;;;;;47.00;36.75;;;;;-149.00;100.00;66333.84;5031723;28;46106;-79
2022/12/02 01:34:02;;;;;;;;;48.75;39.00;;;;;-149.00;100.00;66333.84;5052569;28;45760;-80
2022/12/02 01:36:28;;;;;;;;;46.25;39.75;;;;;-149.00;100.00;66333.84;5045364;28;47030;-80
2022/12/02 01:38:53;;;;;;;;;52.75;42.25;;;;;-149.00;100.00;66333.84;5044610;28;45533;-79
2022/12/02 01:41:18;;;;;;;;;52.00;40.00;;;;;-149.00;100.00;66333.84;5043379;28;45388;-80
2022/12/02 01:43:44;;;;;;;;;46.75;39.75;;;;;-149.00;100.00;66333.84;5051851;28;45290;-80
2022/12/02 01:46:10;;;;;;;;;45.25;38.25;;;;;-149.00;100.00;66333.84;5046870;28;45609;-80
2022/12/02 01:48:36;;;;;;;;;48.50;37.00;;;;;-149.00;100.00;66333.84;5043978;28;45611;-80
2022/12/02 01:51:02;;;;;;;;;46.75;39.75;;;;;-149.00;100.00;66333.84;5047834;28;45411;-80
2022/12/02 01:53:28;;;;;;;;;44.25;37.50;;;;;-149.00;100.00;66333.84;5045277;28;45282;-80
2022/12/02 01:55:53;;;;;;;;;50.75;39.50;;;;;-149.00;100.00;66333.84;5046948;28;46823;-81
2022/12/02 01:58:24;;;;;;;;;47.25;37.25;;;;;-149.00;100.00;66333.84;5051632;28;45621;-80
2022/12/02 02:00:49;;;;;;;;;44.00;36.75;;;;;-149.00;100.00;66333.84;5046550;28;45382;-81
2022/12/02 02:03:15;;;;;;;;;47.50;39.25;;;;;-149.00;100.00;66333.84;5050778;28;45470;-81
2022/12/02 02:05:40;;;;;;;;;50.25;39.50;;;;;-149.00;100.00;66333.84;5051156;28;46079;-80
2022/12/02 02:08:09;;;;;;;;;48.25;38.00;;;;;-149.00;100.00;66333.84;5035267;28;47314;-81
2022/12/02 02:10:36;;;;;;;;;54.25;41.75;;;;;-149.00;100.00;66333.84;5050803;28;45308;-80
2022/12/02 02:13:03;;;;;;;;;47.00;37.50;;;;;-149.00;100.00;66333.84;5036646;28;45336;-79
2022/12/02 02:15:29;;;;;;;;;47.25;38.75;;;;;-149.00;100.00;66333.84;5053512;28;45474;-81
2022/12/02 02:17:56;;;;;;;;;43.75;37.75;;;;;-149.00;100.00;66333.84;5034780;28;48071;-80
2022/12/02 02:20:24;;;;;;;;;50.75;39.00;;;;;-149.00;100.00;66333.84;5052047;28;45278;-80
2022/12/02 02:23:00;;;;;;;;;48.25;39.00;;;;;-149.00;100.00;66333.84;5036251;28;45495;-80
2022/12/02 02:25:25;;;;;;;;;47.25;37.00;;;;;-149.00;100.00;66333.84;5052952;28;45396;-80
2022/12/02 02:27:55;;;;;;;;;49.75;40.00;;;;;-149.00;100.00;66333.84;5053024;28;45287;-80
2022/12/02 02:30:20;;;;;;;;;45.75;38.75;;;;;-149.00;100.00;66333.84;5054857;28;45479;-79
2022/12/02 02:32:47;;;;;;;;;46.25;36.25;;;;;-149.00;100.00;66333.84;5054721;28;45304;-80
2022/12/02 02:35:13;;;;;;;;;50.00;37.75;;;;;-149.00;100.00;66333.84;5054503;28;45612;-80
2022/12/02 02:37:38;;;;;;;;;41.75;37.50;;;;;-149.00;100.00;66333.84;5053509;28;46084;-80
2022/12/02 02:40:05;;;;;;;;;50.50;40.00;;;;;-149.00;100.00;66333.84;5053885;28;45272;-80
2022/12/02 02:42:30;;;;;;;;;36.75;31.50;;;;;-149.00;100.00;66333.84;5054138;28;45276;-81
2022/12/02 02:44:55;;;;;;;;;47.00;39.50;;;;;-149.00;100.00;66333.84;5032379;28;45787;-80
2022/12/02 02:47:21;;;;;;;;;45.25;38.00;;;;;-149.00;100.00;66333.84;5053538;28;46332;-80
2022/12/02 02:49:47;;;;;;;;;50.00;40.50;;;;;-149.00;100.00;66333.84;5052441;28;45289;-80
2022/12/02 02:52:12;;;;;;;;;56.75;45.00;;;;;-149.00;100.00;66333.84;5046397;28;45581;-79
2022/12/02 02:54:38;;;;;;;;;51.50;41.50;;;;;-149.00;100.00;66333.84;5039077;28;47032;-80
2022/12/02 02:57:03;;;;;;;;;51.50;39.25;;;;;-149.00;100.00;66333.84;5033966;28;47340;-81
2022/12/02 02:59:28;;;;;;;;;51.25;40.50;;;;;-149.00;100.00;66333.84;5050148;28;45979;-80
2022/12/02 03:01:54;;;;;;;;;50.50;41.25;;;;;-149.00;100.00;66333.84;5050703;28;45379;-80
2022/12/02 03:04:22;;;;;;;;;51.50;42.50;;;;;-149.00;100.00;66333.84;5053622;28;45253;-80
2022/12/02 03:06:49;;;;;;;;;48.75;40.25;;;;;-149.00;100.00;66333.84;5054624;28;45383;-80
2022/12/02 03:09:19;;;;;;;;;48.50;39.75;;;;;-149.00;100.00;66333.84;5054436;28;45391;-80
2022/12/02 03:11:48;;;;;;;;;46.50;40.75;;;;;-149.00;100.00;66333.84;5057559;28;45329;-80
2022/12/02 03:14:15;;;;;;;;;45.50;37.50;;;;;-149.00;100.00;66333.84;5041450;28;46069;-80
2022/12/02 03:16:42;;;;;;;;;46.00;37.50;;;;;-149.00;100.00;66333.84;5033784;28;47210;-81
2022/12/02 03:19:07;;;;;;;;;50.50;42.00;;;;;-149.00;100.00;66333.84;5028858;28;46066;-80
2022/12/02 03:21:33;;;;;;;;;56.50;43.50;;;;;-149.00;100.00;66333.84;5054526;28;45516;-80
2022/12/02 03:24:01;;;;;;;;;52.25;39.75;;;;;-149.00;100.00;66333.84;5037537;28;47249;-80
2022/12/02 03:26:27;;;;;;;;;52.50;42.00;;;;;-149.00;100.00;66333.84;5055199;28;45515;-81
2022/12/02 03:28:55;;;;;;;;;48.50;39.50;;;;;-149.00;100.00;66333.84;5055658;28;45282;-80
2022/12/02 03:31:21;;;;;;;;;47.25;38.75;;;;;-149.00;100.00;66333.84;5053915;28;45337;-80
2022/12/02 03:33:47;;;;;;;;;50.50;42.25;;;;;-149.00;100.00;66333.84;5053952;28;46473;-80
2022/12/02 03:36:13;;;;;;;;;45.25;37.25;;;;;-149.00;100.00;66333.84;5034145;28;47081;-80
2022/12/02 03:38:39;;;;;;;;;50.00;40.00;;;;;-149.00;100.00;66333.84;5054079;28;45324;-80
2022/12/02 03:41:05;;;;;;;;;50.25;37.25;;;;;-149.00;100.00;66333.84;5053886;28;45348;-80
2022/12/02 03:43:31;;;;;;;;;50.00;42.25;;;;;-149.00;100.00;66333.84;5034917;28;46261;-80
2022/12/02 03:45:58;;;;;;;;;48.00;39.25;;;;;-149.00;100.00;66333.84;5050565;28;48174;-80
2022/12/02 03:48:24;;;;;;;;;49.00;38.75;;;;;-149.00;100.00;66333.84;5030319;28;45340;-80
2022/12/02 03:50:52;;;;;;;;;49.75;38.75;;;;;-149.00;100.00;66333.84;5056354;28;44765;-80
2022/12/02 03:53:18;;;;;;;;;42.50;36.00;;;;;-149.00;100.00;66333.84;5055256;28;45474;-81
2022/12/02 03:55:43;;;;;;;;;54.75;41.75;;;;;-149.00;100.00;66333.84;5033887;28;48352;-81
2022/12/02 03:58:08;;;;;;;;;50.75;38.00;;;;;-149.00;100.00;66333.84;5057331;28;45312;-80
2022/12/02 04:00:35;;;;;;;;;49.50;40.00;;;;;-149.00;100.00;66333.84;5038121;28;45402;-81
2022/12/02 04:03:00;;;;;;;;;51.25;42.00;;;;;-149.00;100.00;66333.84;5057333;28;45249;-80
2022/12/02 04:05:26;;;;;;;;;51.75;40.25;;;;;-149.00;100.00;66333.84;5038384;28;48255;-80
2022/12/02 04:07:51;;;;;;;;;52.25;41.50;;;;;-149.00;100.00;66333.84;5057856;28;45298;-80
2022/12/02 04:10:17;;;;;;;;;49.75;40.25;;;;;-149.00;100.00;66333.84;5038747;28;45348;-80
2022/12/02 04:12:42;;;;;;;;;46.75;39.00;;;;;-149.00;100.00;66333.84;5038006;28;46048;-80
2022/12/02 04:15:09;;;;;;;;;49.75;41.50;;;;;-149.00;100.00;66333.84;5056044;28;46223;-80
2022/12/02 04:17:35;;;;;;;;;48.25;39.00;;;;;-149.00;100.00;66333.84;5053721;28;45425;-80
2022/12/02 04:20:00;;;;;;;;;52.00;41.75;;;;;-149.00;100.00;66333.84;5054137;28;45352;-80
2022/12/02 04:22:26;;;;;;;;;47.75;39.00;;;;;-149.00;100.00;66333.84;5053464;28;45264;-81
2022/12/02 04:24:51;;;;;;;;;46.50;37.50;;;;;-149.00;100.00;66333.84;5049623;28;49268;-80
2022/12/02 04:27:16;;;;;;;;;54.25;41.00;;;;;-149.00;100.00;66333.84;5050367;28;45415;-80
2022/12/02 04:29:42;;;;;;;;;56.00;42.50;;;;;-149.00;100.00;66333.84;5029442;28;44794;-80
2022/12/02 04:32:07;;;;;;;;;52.00;42.25;;;;;-149.00;100.00;66333.84;5055286;28;45549;-80
2022/12/02 04:34:32;;;;;;;;;51.00;42.25;;;;;-149.00;100.00;66333.84;5053046;28;47238;-80
2022/12/02 04:36:57;;;;;;;;;47.00;35.25;;;;;-149.00;100.00;66333.84;5045894;28;45289;-80
2022/12/02 04:39:23;;;;;;;;;50.75;40.25;;;;;-149.00;100.00;66333.84;5052931;28;45262;-79
2022/12/02 04:41:48;;;;;;;;;46.75;38.50;;;;;-149.00;100.00;66333.84;5053819;28;45292;-81
2022/12/02 04:44:13;;;;;;;;;53.75;41.75;;;;;-149.00;100.00;66333.84;5054954;28;45384;-80
2022/12/02 04:46:39;;;;;;;;;51.75;41.75;;;;;-149.00;100.00;66333.84;5054035;28;45340;-80
2022/12/02 04:49:04;;;;;;;;;47.25;39.00;;;;;-149.00;100.00;66333.84;5048952;28;45498;-80
2022/12/02 04:51:31;;;;;;;;;50.00;39.25;;;;;-149.00;100.00;66333.84;5052501;28;45497;-80
2022/12/02 04:53:56;;;;;;;;;49.00;41.00;;;;;-149.00;100.00;66333.84;5051406;28;48275;-80
2022/12/02 04:56:21;;;;;;;;;44.25;37.00;;;;;-149.00;100.00;66333.84;5047593;28;45359;-80
2022/12/02 04:58:47;;;;;;;;;54.00;43.00;;;;;-149.00;100.00;66333.84;5027177;28;45277;-80
2022/12/02 05:01:12;;;;;;;;;55.25;43.00;;;;;-149.00;100.00;66333.84;5047612;28;45375;-82
2022/12/02 05:03:37;;;;;;;;;46.50;40.25;;;;;-149.00;100.00;66333.84;5033249;28;47078;-80
2022/12/02 05:06:03;;;;;;;;;54.75;44.00;;;;;-149.00;100.00;66333.84;5056317;28;45190;-80
2022/12/02 05:08:28;;;;;;;;;43.00;36.50;;;;;-149.00;100.00;66333.84;5053157;28;45354;-80
2022/12/02 05:10:53;;;;;;;;;54.75;43.75;;;;;-149.00;100.00;66333.84;5050877;28;45577;-80
2022/12/02 05:13:19;;;;;;;;;51.25;40.75;;;;;-149.00;100.00;66333.84;5041278;28;45506;-80
2022/12/02 05:15:44;;;;;;;;;51.75;42.50;;;;;-149.00;100.00;66333.84;5029121;28;45846;-80
2022/12/02 05:18:10;;;;;;;;;48.75;40.50;;;;;-149.00;100.00;66333.84;5021304;28;45340;-80
2022/12/02 05:20:35;;;;;;;;;51.50;42.75;;;;;-149.00;100.00;66333.84;5035163;28;46101;-80
2022/12/02 05:23:00;;;;;;;;;51.75;42.25;;;;;-149.00;100.00;66333.84;5058332;28;46017;-81
2022/12/02 05:25:26;;;;;;;;;52.75;43.25;;;;;-149.00;100.00;66333.84;5056183;28;45308;-80
2022/12/02 05:27:51;;;;;;;;;54.00;42.50;;;;;-149.00;100.00;66333.84;5055247;28;45388;-80
2022/12/02 05:30:16;;;;;;;;;48.50;39.00;;;;;-149.00;100.00;66333.84;5035618;28;46302;-80
2022/12/02 05:32:42;;;;;;;;;47.75;40.25;;;;;-149.00;100.00;66333.84;5051494;28;46328;-80
2022/12/02 05:35:07;;;;;;;;;55.75;43.25;;;;;-149.00;100.00;66333.84;5052225;28;45757;-79
2022/12/02 05:37:33;;;;;;;;;54.75;43.50;;;;;-149.00;100.00;66333.84;5032543;28;45532;-80
2022/12/02 05:39:59;;;;;;;;;53.25;42.25;;;;;-149.00;100.00;66333.84;5054045;28;45434;-80
2022/12/02 05:42:24;;;;;;;;;51.75;42.00;;;;;-149.00;100.00;66333.84;5055395;28;46553;-80
2022/12/02 05:44:50;;;;;;;;;52.25;43.75;;;;;-149.00;100.00;66333.84;5036480;28;45467;-80
2022/12/02 05:47:16;;;;;;;;;51.25;40.75;;;;;-149.00;100.00;66333.84;5053073;28;45371;-80
2022/12/02 05:49:45;;;;;;;;;56.50;46.50;;;;;-149.00;100.00;66333.84;5054790;28;45331;-80
2022/12/02 05:52:24;;;;;;;;;55.25;43.75;;;;;-149.00;100.00;66333.84;5052093;28;45609;-80
2022/12/02 05:54:55;;;;;;;;;56.50;43.00;;;;;-149.00;100.00;66333.84;5047112;28;45379;-80
2022/12/02 05:57:27;;;;;;;;;50.00;40.75;;;;;-149.00;100.00;66333.84;5052956;28;45355;-79
2022/12/02 06:00:08;;;;;;;;;52.00;40.50;;;;;-149.00;100.00;66333.84;5031165;28;46370;-80
2022/12/02 06:02:44;;;;;;;;;53.75;40.75;;;;;-149.00;100.00;66333.84;5049677;28;48815;-81
2022/12/02 06:05:15;;;;;;;;;52.75;41.50;;;;;-149.00;100.00;66333.84;5036358;28;45344;-80
2022/12/02 06:07:40;;;;;;;;;49.50;42.25;;;;;-149.00;100.00;66333.84;5050824;28;45364;-80
2022/12/02 06:10:21;;;;;;;;;52.25;41.75;;;;;-149.00;100.00;66333.84;5051184;28;46337;-80
2022/12/02 06:12:47;;;;;;;;;54.25;44.25;;;;;-149.00;100.00;66333.84;5056543;28;46814;-79
2022/12/02 06:15:14;;;;;;;;;48.00;39.25;;;;;-149.00;100.00;66333.84;5036109;28;45274;-81
2022/12/02 06:17:39;;;;;;;;;49.25;39.75;;;;;-149.00;100.00;66333.84;5055909;28;45444;-80
2022/12/02 06:20:05;;;;;;;;;53.00;43.50;;;;;-149.00;100.00;66333.84;5055778;28;45521;-80
2022/12/02 06:22:32;;;;;;;;;52.00;43.25;;;;;-149.00;100.00;66333.84;5036870;28;47021;-80
2022/12/02 06:25:05;;;;;;;;;53.25;40.25;;;;;-149.00;100.00;66333.84;5031044;28;45807;-80
2022/12/02 06:27:32;;;;;;;;;58.00;45.50;;;;;-149.00;100.00;66333.84;5039784;28;45173;-80
2022/12/02 06:30:02;;;;;;;;;56.75;44.00;;;;;-149.00;100.00;66333.84;5029715;28;46301;-81
2022/12/02 06:32:37;;;;;;;;;60.25;46.75;;;;;-149.00;100.00;66333.84;5033865;28;45851;-79
2022/12/02 06:35:15;;;;;;;;;54.75;44.50;;;;;-149.00;100.00;66333.84;5050393;28;45642;-81
2022/12/02 06:37:42;;;;;;;;;52.25;40.50;;;;;-149.00;100.00;66333.84;5049192;28;45363;-81
2022/12/02 06:40:25;;;;;;;;;53.25;40.75;;;;;-149.00;100.00;66333.84;5039975;28;47180;-81
2022/12/02 06:42:51;;;;;;;;;55.00;45.75;;;;;-149.00;100.00;66333.84;5021137;28;45531;-80
2022/12/02 06:45:26;;;;;;;;;56.00;45.25;;;;;-149.00;100.00;66333.84;5042463;28;45238;-80
2022/12/02 06:48:00;;;;;;;;;47.75;39.75;;;;;-149.00;100.00;66333.84;5041960;28;45442;-80
2022/12/02 06:50:27;;;;;;;;;54.50;43.50;;;;;-149.00;100.00;66333.84;5059522;28;45268;-79
2022/12/02 06:53:01;;;;;;;;;57.75;46.00;;;;;-149.00;100.00;66333.84;5059829;28;45584;-78
2022/12/02 06:55:31;;;;;;;;;58.00;43.25;;;;;-149.00;100.00;66333.84;5041536;28;45249;-79
2022/12/02 06:58:30;;;;;;;;;55.50;44.25;;;;;-149.00;100.00;66333.84;5057047;28;45439;-79
2022/12/02 07:01:10;;;;;;;;;57.25;45.25;;;;;-149.00;100.00;66333.84;5051251;28;45478;-80
2022/12/02 07:03:43;;;;;;;;;59.75;46.00;;;;;-149.00;100.00;66333.84;5046883;28;47511;-78
2022/12/02 07:06:22;;;;;;;;;54.75;43.50;;;;;-149.00;100.00;66333.84;5045383;28;45348;-79
2022/12/02 07:08:48;;;;;;;;;57.00;45.00;;;;;-149.00;100.00;66333.84;5046305;28;45234;-82
2022/12/02 07:11:20;;;;;;;;;52.25;42.25;;;;;-149.00;100.00;66333.84;5055483;28;45372;-80
2022/12/02 07:13:47;;;;;;;;;57.50;44.00;;;;;-149.00;100.00;66333.84;5035747;28;47420;-83
2022/12/02 07:16:35;;;;;;;;;55.75;43.50;;;;;-149.00;100.00;66333.84;5031980;28;45275;-84
2022/12/02 07:19:01;;;;;;;;;56.25;45.75;;;;;-149.00;100.00;66333.84;5029391;28;45309;-82
2022/12/02 07:21:26;;;;;;;;;60.00;46.50;;;;;-149.00;100.00;66333.84;5027888;28;46048;-83
2022/12/02 07:23:52;;;;;;;;;57.25;45.50;;;;;-149.00;100.00;66333.84;5029233;28;47287;-84
2022/12/02 07:26:18;;;;;;;;;57.25;45.25;;;;;-149.00;100.00;66333.84;5029428;28;45357;-83
2022/12/02 07:28:44;;;;;;;;;56.50;42.50;;;;;-149.00;100.00;66333.84;5046057;28;45471;-83
2022/12/02 07:31:29;;;;;;;;;48.75;40.00;;;;;-149.00;100.00;66333.84;5045196;28;45352;-83
2022/12/02 07:33:55;;;;;;;;;61.25;47.50;;;;;-149.00;100.00;66333.84;5045233;28;45316;-83
2022/12/02 07:36:20;;;;;;;;;55.25;43.00;;;;;-149.00;100.00;66333.84;5027114;28;45600;-83
2022/12/02 07:38:46;;;;;;;;;53.00;42.00;;;;;-149.00;100.00;66333.84;5027642;28;45422;-80
2022/12/02 07:41:12;;;;;;;;;61.25;46.75;;;;;-149.00;100.00;66333.84;5027446;28;46028;-79
2022/12/02 07:43:38;;;;;;;;;59.50;46.50;;;;;-149.00;100.00;66333.84;5045339;28;45366;-80
2022/12/02 07:46:04;;;;;;;;;55.25;45.75;;;;;-149.00;100.00;66333.84;5052748;28;46213;-78
2022/12/02 07:48:29;;;;;;;;;59.50;45.75;;;;;-149.00;100.00;66333.84;5056041;28;45249;-77
2022/12/02 07:50:55;;;;;;;;;59.75;45.00;;;;;-149.00;100.00;66333.84;5034132;28;47321;-78
2022/12/02 07:53:20;;;;;;;;;59.00;45.00;;;;;-149.00;100.00;66333.84;5053770;28;45365;-78
2022/12/02 07:55:45;;;;;;;;;53.75;43.50;;;;;-149.00;100.00;66333.84;5048402;28;45493;-79
2022/12/02 07:58:10;;;;;;;;;54.00;43.25;;;;;-149.00;100.00;66333.84;5028261;28;45301;-78
2022/12/02 08:00:36;;;;;;;;;58.00;47.00;;;;;-149.00;100.00;66333.84;5036281;28;46895;-78
2022/12/02 08:03:01;;;;;;;;;61.50;48.25;;;;;-149.00;100.00;66333.84;5029402;28;48306;-77
2022/12/02 08:05:27;;;;;;;;;56.75;46.75;;;;;-149.00;100.00;66333.84;5034814;28;45175;-79
2022/12/02 08:07:52;;;;;;;;;56.00;45.75;;;;;-149.00;100.00;66333.84;5053336;28;45441;-77
2022/12/02 08:10:18;;;;;;;;;54.75;45.50;;;;;-149.00;100.00;66333.84;5057002;28;45502;-78
2022/12/02 08:12:43;;;;;;;;;54.75;44.25;;;;;-149.00;100.00;66333.84;5040100;28;47998;-78
2022/12/02 08:15:11;;;;;;;;;57.25;46.00;;;;;-149.00;100.00;66333.84;5050060;28;45507;-78
2022/12/02 08:17:36;;;;;;;;;60.00;47.50;;;;;-149.00;100.00;66333.84;5051312;28;45577;-78
2022/12/02 08:20:03;;;;;;;;;56.00;44.25;;;;;-149.00;100.00;66333.84;5029840;28;51604;-78
2022/12/02 08:22:28;;;;;;;;;57.25;45.75;;;;;-149.00;100.00;66333.84;5024503;28;47491;-77
2022/12/02 08:24:54;;;;;;;;;61.75;46.75;;;;;-149.00;100.00;66333.84;5040928;28;45336;-77
2022/12/02 08:27:20;;;;;;;;;56.00;46.00;;;;;-149.00;100.00;66333.84;5024893;28;45349;-77
2022/12/02 08:29:47;;;;;;;;;64.25;49.00;;;;;-149.00;100.00;66333.84;5043056;28;45560;-77
2022/12/02 08:32:13;;;;;;;;;57.50;46.75;;;;;-149.00;100.00;66333.84;5043630;28;45367;-77
2022/12/02 08:34:38;;;;;;;;;63.00;51.25;;;;;-149.00;100.00;66333.84;5027243;28;45405;-76
2022/12/02 08:37:03;;;;;;;;;58.75;46.75;;;;;-149.00;100.00;66333.84;5024207;28;47016;-76
2022/12/02 08:39:28;;;;;;;;;57.25;46.75;;;;;-149.00;100.00;66333.84;5038588;28;45917;-78
2022/12/02 08:41:54;;;;;;;;;59.75;47.25;;;;;-149.00;100.00;66333.84;5039671;28;47003;-77
2022/12/02 08:44:19;;;;;;;;;62.75;49.50;;;;;-149.00;100.00;66333.84;5035994;28;45657;-77
2022/12/02 08:46:44;;;;;;;;;62.75;47.50;;;;;-149.00;100.00;66333.84;5034927;28;45612;-76
2022/12/02 08:49:10;;;;;;;;;58.00;46.50;;;;;-149.00;100.00;66333.84;5029989;28;45869;-77
2022/12/02 08:51:35;;;;;;;;;61.75;49.00;;;;;-149.00;100.00;66333.84;5037042;28;45678;-78
2022/12/02 08:54:01;;;;;;;;;59.25;47.00;;;;;-149.00;100.00;66333.84;5037150;28;45396;-78
2022/12/02 08:56:26;;;;;;;;;65.00;49.00;;;;;-149.00;100.00;66333.84;5039597;28;45549;-78
2022/12/02 08:58:52;;;;;;;;;63.75;50.25;;;;;-149.00;100.00;66333.84;5037048;28;46137;-78
2022/12/02 09:01:17;;;;;;;;;60.00;47.25;;;;;-149.00;100.00;66333.84;5038665;28;46337;-78
2022/12/02 09:03:42;;;;;;;;;61.50;47.50;;;;;-149.00;100.00;66333.84;5037205;28;45396;-77
2022/12/02 09:06:08;;;;;;;;;64.00;51.25;;;;;-149.00;100.00;66333.84;5039152;28;45389;-76
2022/12/02 09:08:33;;;;;;;;;56.50;45.00;;;;;-149.00;100.00;66333.84;5038073;28;45526;-79
2022/12/02 09:10:59;;;;;;;;;58.25;47.00;;;;;-149.00;100.00;66333.84;5028765;28;48011;-79
2022/12/02 09:13:24;;;;;;;;;61.75;49.75;;;;;-149.00;100.00;66333.84;5035182;28;45561;-78
2022/12/02 09:15:50;;;;;;;;;66.25;50.75;;;;;-149.00;100.00;66333.84;5038626;28;45479;-80
2022/12/02 09:18:15;;;;;;;;;60.75;47.75;;;;;-149.00;100.00;66333.84;5040108;28;45300;-79
2022/12/02 09:20:41;;;;;;;;;65.75;51.25;;;;;-149.00;100.00;66333.84;5039852;28;45456;-79
2022/12/02 09:23:06;;;;;;;;;58.50;48.00;;;;;-149.00;100.00;66333.84;5039809;28;45264;-79
2022/12/02 09:25:31;;;;;;;;;61.75;49.00;;;;;-149.00;100.00;66333.84;5040155;28;45248;-79
2022/12/02 09:27:57;;;;;;;;;61.75;48.75;;;;;-149.00;100.00;66333.84;5021676;28;53400;-79
2022/12/02 09:30:22;;;;;;;;;63.00;50.00;;;;;-149.00;100.00;66333.84;5039571;28;46222;-81
2022/12/02 09:32:47;;;;;;;;;63.50;49.50;;;;;-149.00;100.00;66333.84;5022094;28;45238;-81
2022/12/02 09:35:13;;;;;;;;;65.00;50.75;;;;;-149.00;100.00;66333.84;5038105;28;45486;-82
2022/12/02 09:37:38;;;;;;;;;62.75;47.50;;;;;-149.00;100.00;66333.84;5039291;28;45384;-81
2022/12/02 09:40:05;;;;;;;;;60.25;48.25;;;;;-149.00;100.00;66333.84;5038075;28;46521;-79
2022/12/02 09:42:31;;;;;;;;;62.50;50.25;;;;;-149.00;100.00;66333.84;5039322;28;45442;-80
2022/12/02 09:44:57;;;;;;;;;64.75;51.50;;;;;-149.00;100.00;66333.84;5038117;28;45368;-81
2022/12/02 09:47:24;;;;;;;;;68.75;51.25;;;;;-149.00;100.00;66333.84;5038335;28;45848;-82
2022/12/02 09:49:50;;;;;;;;;64.50;51.50;;;;;-149.00;100.00;66333.84;5033838;28;47374;-84
2022/12/02 09:52:23;;;;;;;;;57.50;46.75;;;;;-149.00;100.00;66333.84;5019598;28;45736;-77
2022/12/02 09:54:50;;;;;;;;;63.50;49.25;;;;;-149.00;100.00;66333.84;5022953;28;45259;-79
2022/12/02 09:57:16;;;;;;;;;61.00;48.50;;;;;-149.00;100.00;66333.84;5038131;28;45426;-78
2022/12/02 09:59:43;;;;;;;;;63.50;50.25;;;;;-149.00;100.00;66333.84;5021239;28;48506;-78
2022/12/02 10:02:34;;;;;;;;;64.50;49.75;;;;;-149.00;100.00;66333.84;5039600;28;45339;-78
2022/12/02 10:05:06;;;;;;;;;62.25;51.25;;;;;-149.00;100.00;66333.84;5039448;28;45298;-79
2022/12/02 10:07:31;;;;;;;;;63.25;48.25;;;;;-149.00;100.00;66333.84;5039289;28;46470;-77
2022/12/02 10:09:57;;;;;;;;;67.50;51.00;;;;;-149.00;100.00;66333.84;5038987;28;45363;-76
2022/12/02 10:12:22;;;;;;;;;66.00;50.00;;;;;-149.00;100.00;66333.84;5043201;28;45525;-77
2022/12/02 10:14:49;;;;;;;;;67.00;52.50;;;;;-149.00;100.00;66333.84;5044446;28;45424;-78
2022/12/02 10:17:17;;;;;;;;;63.50;49.75;;;;;-149.00;100.00;66333.84;5043729;28;45466;-77
2022/12/02 10:19:43;;;;;;;;;67.25;52.50;;;;;-149.00;100.00;66333.84;5043757;28;46404;-76
2022/12/02 10:22:15;;;;;;;;;65.50;50.25;;;;;-149.00;100.00;66333.84;5046783;28;45358;-77
2022/12/02 10:24:41;;;;;;;;;64.00;51.00;;;;;-149.00;100.00;66333.84;5048126;28;45634;-78
2022/12/02 10:27:07;;;;;;;;;67.25;51.50;;;;;-149.00;100.00;66333.84;5047887;28;45332;-76
2022/12/02 10:29:33;;;;;;;;;65.50;50.75;;;;;-149.00;100.00;66333.84;5023998;28;47268;-74
2022/12/02 10:32:04;;;;;;;;;62.00;49.25;;;;;-149.00;100.00;66333.84;5043074;28;45486;-75
2022/12/02 10:34:32;;;;;;;;;67.25;52.50;;;;;-149.00;100.00;66333.84;5040444;28;45219;-75
2022/12/02 10:37:24;;;;;;;;;64.50;49.25;;;;;-149.00;100.00;66333.84;5027077;28;47110;-77
2022/12/02 10:40:26;;;;;;;;;62.75;49.00;;;;;-149.00;100.00;66333.84;5004715;28;47462;-79
2022/12/02 10:43:10;;;;;;;;;67.25;52.50;;;;;-149.00;100.00;66333.84;5036624;28;45550;-76
2022/12/02 10:45:35;;;;;;;;;65.75;50.75;;;;;-149.00;100.00;66333.84;5039277;28;45407;-76
2022/12/02 10:48:15;;;;;;;;;68.75;51.25;;;;;-149.00;100.00;66333.84;5038711;28;45284;-76
2022/12/02 10:50:40;;;;;;;;;65.00;50.25;;;;;-149.00;100.00;66333.84;5039281;28;46800;-76
2022/12/02 10:53:16;;;;;;;;;68.25;52.50;;;;;-149.00;100.00;66333.84;5020525;28;45330;-76
2022/12/02 10:55:42;;;;;;;;;66.50;52.25;;;;;-149.00;100.00;66333.84;5020194;28;45290;-75
2022/12/02 10:58:34;;;;;;;;;62.00;49.25;;;;;-149.00;100.00;66333.84;5030026;28;47394;-75